Time;durP1;ratioP1;P1;durP2;ratioP2;P2;SDS_P1;SDS_P2;PMS_P1;PMS_P2;Temp;Humidity;BMP_temperature;BMP_pressure;BME280_temperature;BME280_humidity;BME280_pressure;Samples;Min_cycle;Max_cycle;Signal;HPM_P1;HPM_P2
2022/09/02 00:01:58;;;;;;;1.67;0.57;;;;;;;;;;5075537;28;20059;-65
2022/09/02 00:04:25;;;;;;;3.85;0.65;;;;;;;;;;5082309;28;20056;-65
2022/09/02 00:06:53;;;;;;;3.28;0.90;;;;;;;;;;5072068;28;20499;-64
2022/09/02 00:09:20;;;;;;;2.25;0.80;;;;;;;;;;5079266;28;20052;-65
2022/09/02 00:11:47;;;;;;;1.15;0.82;;;;;;;;;;5085273;28;20056;-64
2022/09/02 00:14:16;;;;;;;1.35;0.75;;;;;;;;;;5091296;28;20059;-65
2022/09/02 00:16:43;;;;;;;1.27;0.65;;;;;;;;;;5090385;28;20052;-64
2022/09/02 00:19:10;;;;;;;1.10;1.00;;;;;;;;;;5069287;28;20059;-64
2022/09/02 00:21:37;;;;;;;1.70;0.60;;;;;;;;;;5083489;28;20045;-64
2022/09/02 00:24:04;;;;;;;0.95;0.80;;;;;;;;;;5079749;28;20168;-64
2022/09/02 00:26:30;;;;;;;2.38;0.63;;;;;;;;;;5091438;28;20048;-65
2022/09/02 00:28:57;;;;;;;3.15;1.10;;;;;;;;;;5072814;28;20096;-65
2022/09/02 00:31:24;;;;;;;1.95;0.90;;;;;;;;;;5077574;28;20144;-64
2022/09/02 00:33:52;;;;;;;1.75;1.00;;;;;;;;;;5091602;28;20056;-64
2022/09/02 00:36:18;;;;;;;2.25;1.13;;;;;;;;;;5094580;28;20056;-65
2022/09/02 00:38:45;;;;;;;3.28;0.80;;;;;;;;;;5103765;27;20059;-64
2022/09/02 00:41:11;;;;;;;0.77;0.77;;;;;;;;;;5086759;28;20049;-64
2022/09/02 00:43:45;;;;;;;2.75;1.15;;;;;;;;;;5071399;28;20056;-64
2022/09/02 00:46:14;;;;;;;3.08;0.70;;;;;;;;;;5087602;28;20049;-63
2022/09/02 00:48:44;;;;;;;5.30;0.75;;;;;;;;;;5099673;27;20139;-64
2022/09/02 00:51:11;;;;;;;2.47;0.80;;;;;;;;;;5085943;28;20144;-64
2022/09/02 00:53:41;;;;;;;1.30;0.73;;;;;;;;;;5079823;28;20523;-64
2022/09/02 00:56:11;;;;;;;1.00;0.70;;;;;;;;;;5081380;28;20056;-65
2022/09/02 00:58:38;;;;;;;1.95;0.60;;;;;;;;;;5086306;28;20056;-64
2022/09/02 01:01:04;;;;;;;2.47;0.70;;;;;;;;;;5073547;28;20056;-64
2022/09/02 01:03:32;;;;;;;1.20;0.82;;;;;;;;;;5077499;28;20064;-65
2022/09/02 01:05:58;;;;;;;3.53;0.90;;;;;;;;;;5071248;28;20068;-64
2022/09/02 01:08:28;;;;;;;3.28;0.80;;;;;;;;;;5070803;28;20059;-64
2022/09/02 01:10:55;;;;;;;0.60;0.60;;;;;;;;;;5072198;28;20052;-65
2022/09/02 01:13:27;;;;;;;3.30;0.95;;;;;;;;;;5081465;28;20049;-65
2022/09/02 01:15:57;;;;;;;1.05;0.70;;;;;;;;;;5089908;28;20052;-64
2022/09/02 01:18:27;;;;;;;3.80;0.98;;;;;;;;;;5075605;28;20138;-64
2022/09/02 01:20:58;;;;;;;6.00;1.63;;;;;;;;;;5070586;28;20136;-64
2022/09/02 01:23:27;;;;;;;0.90;0.77;;;;;;;;;;5074456;28;20057;-64
2022/09/02 01:25:57;;;;;;;2.92;0.80;;;;;;;;;;5083191;28;20132;-65
2022/09/02 01:28:24;;;;;;;1.05;0.60;;;;;;;;;;5075127;28;20153;-64
2022/09/02 01:30:52;;;;;;;1.63;0.85;;;;;;;;;;5075738;28;20048;-64
2022/09/02 01:33:19;;;;;;;2.40;0.85;;;;;;;;;;5089503;28;20059;-64
2022/09/02 01:35:48;;;;;;;0.98;0.65;;;;;;;;;;5090758;28;20068;-65
2022/09/02 01:38:14;;;;;;;1.85;0.90;;;;;;;;;;5078804;28;20056;-64
2022/09/02 01:40:41;;;;;;;2.60;0.70;;;;;;;;;;5075776;28;20057;-64
2022/09/02 01:43:10;;;;;;;0.65;0.65;;;;;;;;;;5074237;28;20052;-64
2022/09/02 01:45:37;;;;;;;1.45;0.90;;;;;;;;;;5075044;28;20492;-65
2022/09/02 01:48:04;;;;;;;5.55;1.15;;;;;;;;;;5081424;28;20055;-64
2022/09/02 01:50:30;;;;;;;5.55;0.80;;;;;;;;;;5083188;28;20152;-64
2022/09/02 01:52:57;;;;;;;1.05;0.88;;;;;;;;;;5074220;28;20049;-64
2022/09/02 01:55:24;;;;;;;5.22;0.85;;;;;;;;;;5079486;28;20053;-64
2022/09/02 01:57:50;;;;;;;3.10;0.80;;;;;;;;;;5079120;28;20513;-65
2022/09/02 02:00:16;;;;;;;2.78;0.68;;;;;;;;;;5081715;28;20075;-64
2022/09/02 02:02:43;;;;;;;2.80;0.68;;;;;;;;;;5076156;28;20055;-66
2022/09/02 02:05:10;;;;;;;1.42;1.02;;;;;;;;;;5088620;28;20052;-66
2022/09/02 02:07:36;;;;;;;3.38;0.77;;;;;;;;;;5083304;28;20056;-66
2022/09/02 02:10:03;;;;;;;2.72;0.70;;;;;;;;;;5089977;28;20416;-65
2022/09/02 02:12:30;;;;;;;0.77;0.77;;;;;;;;;;5082627;28;20053;-64
2022/09/02 02:14:56;;;;;;;1.77;0.80;;;;;;;;;;5073851;28;20048;-64
2022/09/02 02:17:22;;;;;;;1.33;0.88;;;;;;;;;;5073612;28;20063;-64
2022/09/02 02:19:49;;;;;;;1.42;0.68;;;;;;;;;;5072097;28;20051;-64
2022/09/02 02:22:16;;;;;;;0.80;0.80;;;;;;;;;;5074160;28;20057;-64
2022/09/02 02:24:42;;;;;;;0.98;0.80;;;;;;;;;;5093259;28;20083;-64
2022/09/02 02:27:08;;;;;;;2.58;0.68;;;;;;;;;;5090181;28;20049;-64
2022/09/02 02:29:35;;;;;;;0.50;0.50;;;;;;;;;;5073703;28;20057;-64
2022/09/02 02:32:01;;;;;;;1.25;0.65;;;;;;;;;;5084111;28;20480;-65
2022/09/02 02:34:28;;;;;;;2.10;0.73;;;;;;;;;;5091940;28;20061;-64
2022/09/02 02:36:54;;;;;;;1.90;0.80;;;;;;;;;;5088762;28;20049;-64
2022/09/02 02:39:20;;;;;;;1.77;0.68;;;;;;;;;;5078577;28;20059;-65
2022/09/02 02:41:47;;;;;;;2.55;0.95;;;;;;;;;;5091464;28;20393;-65
2022/09/02 02:44:13;;;;;;;2.05;0.70;;;;;;;;;;5072721;28;20057;-65
2022/09/02 02:46:40;;;;;;;3.92;1.00;;;;;;;;;;5072085;28;20171;-64
2022/09/02 02:49:06;;;;;;;1.67;0.65;;;;;;;;;;5071525;28;20136;-63
2022/09/02 02:51:33;;;;;;;0.80;0.80;;;;;;;;;;5087470;28;20562;-64
2022/09/02 02:54:00;;;;;;;0.88;0.85;;;;;;;;;;5084335;28;20053;-65
2022/09/02 02:56:27;;;;;;;0.47;0.47;;;;;;;;;;5093677;28;20048;-65
2022/09/02 02:58:53;;;;;;;0.82;0.75;;;;;;;;;;5083756;28;20053;-66
2022/09/02 03:01:20;;;;;;;1.95;0.95;;;;;;;;;;5073389;28;20106;-65
2022/09/02 03:03:46;;;;;;;1.95;0.95;;;;;;;;;;5093551;28;20465;-65
2022/09/02 03:06:12;;;;;;;0.77;0.70;;;;;;;;;;5085118;28;20049;-64
2022/09/02 03:08:39;;;;;;;3.40;0.77;;;;;;;;;;5072651;28;20063;-65
2022/09/02 03:11:05;;;;;;;1.30;0.60;;;;;;;;;;5072266;28;20059;-63
2022/09/02 03:13:33;;;;;;;3.90;0.90;;;;;;;;;;5072665;28;20057;-64
2022/09/02 03:15:59;;;;;;;3.42;1.08;;;;;;;;;;5092161;28;20057;-64
2022/09/02 03:18:26;;;;;;;2.78;0.88;;;;;;;;;;5080997;28;20136;-64
2022/09/02 03:20:52;;;;;;;2.22;0.60;;;;;;;;;;5092590;28;20057;-64
2022/09/02 03:23:19;;;;;;;1.63;0.70;;;;;;;;;;5076320;28;20053;-63
2022/09/02 03:25:45;;;;;;;0.80;0.80;;;;;;;;;;5072590;28;20529;-64
2022/09/02 03:28:12;;;;;;;1.80;1.00;;;;;;;;;;5095895;28;20054;-64
2022/09/02 03:30:39;;;;;;;4.38;0.98;;;;;;;;;;5086833;28;20061;-65
2022/09/02 03:33:05;;;;;;;1.80;1.00;;;;;;;;;;5076112;28;20045;-64
2022/09/02 03:35:33;;;;;;;2.33;1.08;;;;;;;;;;5091960;28;20058;-64
2022/09/02 03:38:00;;;;;;;1.38;1.27;;;;;;;;;;5092080;28;20056;-64
2022/09/02 03:40:27;;;;;;;1.23;1.00;;;;;;;;;;5092356;28;20053;-64
2022/09/02 03:42:54;;;;;;;1.60;1.10;;;;;;;;;;5080537;28;20064;-64
2022/09/02 03:45:25;;;;;;;3.38;0.80;;;;;;;;;;5089763;28;20053;-64
2022/09/02 03:47:54;;;;;;;0.85;0.80;;;;;;;;;;5079317;28;20503;-64
2022/09/02 03:50:23;;;;;;;4.97;1.10;;;;;;;;;;5084858;28;20056;-64
2022/09/02 03:52:50;;;;;;;0.85;0.70;;;;;;;;;;5089966;28;20045;-64
2022/09/02 03:55:18;;;;;;;3.25;0.85;;;;;;;;;;5091895;28;20058;-64
2022/09/02 03:57:44;;;;;;;1.58;0.90;;;;;;;;;;5090761;28;20068;-64
2022/09/02 04:00:12;;;;;;;0.77;0.70;;;;;;;;;;5087726;28;20238;-64
2022/09/02 04:02:38;;;;;;;0.80;0.60;;;;;;;;;;5102380;27;20060;-63
2022/09/02 04:05:05;;;;;;;2.10;0.75;;;;;;;;;;5074275;28;20599;-64
2022/09/02 04:07:39;;;;;;;4.78;1.08;;;;;;;;;;5083625;28;20049;-64
2022/09/02 04:10:08;;;;;;;0.70;0.70;;;;;;;;;;5075219;28;20634;-64
2022/09/02 04:12:35;;;;;;;1.83;0.70;;;;;;;;;;5081474;28;20492;-64
2022/09/02 04:15:03;;;;;;;3.25;0.80;;;;;;;;;;5077143;28;20473;-64
2022/09/02 04:17:29;;;;;;;1.58;0.77;;;;;;;;;;5081708;28;20052;-64
2022/09/02 04:19:55;;;;;;;2.83;0.73;;;;;;;;;;5091023;28;20044;-64
2022/09/02 04:22:23;;;;;;;0.75;0.70;;;;;;;;;;5090882;28;20059;-64
2022/09/02 04:24:49;;;;;;;3.47;1.08;;;;;;;;;;5079077;28;20057;-65
2022/09/02 04:27:15;;;;;;;1.70;0.60;;;;;;;;;;5070879;28;20095;-64
2022/09/02 04:29:41;;;;;;;0.90;0.63;;;;;;;;;;5087082;28;20064;-65
2022/09/02 04:32:08;;;;;;;1.88;0.93;;;;;;;;;;5087419;28;20044;-65
2022/09/02 04:34:34;;;;;;;2.08;1.10;;;;;;;;;;5072423;28;20053;-65
2022/09/02 04:37:00;;;;;;;3.03;0.75;;;;;;;;;;5081457;28;20484;-65
2022/09/02 04:39:27;;;;;;;4.20;0.90;;;;;;;;;;5089340;28;20503;-65
2022/09/02 04:41:53;;;;;;;3.72;0.85;;;;;;;;;;5090730;28;20427;-65
2022/09/02 04:44:19;;;;;;;3.17;0.90;;;;;;;;;;5086356;28;20102;-65
2022/09/02 04:46:46;;;;;;;0.65;0.60;;;;;;;;;;5085762;28;20585;-64
2022/09/02 04:49:15;;;;;;;2.60;0.90;;;;;;;;;;5085132;28;20052;-64
2022/09/02 04:51:42;;;;;;;2.35;0.75;;;;;;;;;;5077386;28;20048;-63
2022/09/02 04:54:08;;;;;;;5.75;1.13;;;;;;;;;;5090489;28;20427;-65
2022/09/02 04:56:34;;;;;;;2.78;1.38;;;;;;;;;;5080361;28;20067;-65
2022/09/02 04:59:01;;;;;;;1.52;0.88;;;;;;;;;;5090773;28;20059;-64
2022/09/02 05:01:30;;;;;;;3.40;0.90;;;;;;;;;;5088582;28;22230;-64
2022/09/02 05:03:58;;;;;;;5.15;1.02;;;;;;;;;;5074799;28;20088;-64
2022/09/02 05:06:26;;;;;;;2.83;1.05;;;;;;;;;;5081640;28;20048;-64
2022/09/02 05:08:53;;;;;;;2.22;0.90;;;;;;;;;;5086486;28;20484;-65
2022/09/02 05:11:21;;;;;;;9.18;1.70;;;;;;;;;;5074436;28;20045;-64
2022/09/02 05:13:50;;;;;;;2.90;1.08;;;;;;;;;;5090070;28;20060;-64
2022/09/02 05:16:17;;;;;;;1.13;0.75;;;;;;;;;;5076718;28;20068;-65
2022/09/02 05:18:44;;;;;;;1.95;1.00;;;;;;;;;;5078401;28;20060;-64
2022/09/02 05:21:10;;;;;;;11.45;1.02;;;;;;;;;;5093221;28;20942;-65
2022/09/02 05:23:36;;;;;;;3.55;1.00;;;;;;;;;;5084474;28;20056;-64
2022/09/02 05:26:04;;;;;;;1.95;0.85;;;;;;;;;;5094616;28;20531;-65
2022/09/02 05:28:30;;;;;;;7.18;1.13;;;;;;;;;;5094313;28;20076;-65
2022/09/02 05:31:01;;;;;;;3.78;0.90;;;;;;;;;;5086406;28;20051;-64
2022/09/02 05:33:27;;;;;;;7.97;0.90;;;;;;;;;;5076096;28;20490;-65
2022/09/02 05:35:54;;;;;;;3.20;1.13;;;;;;;;;;5073725;28;20430;-65
2022/09/02 05:38:20;;;;;;;4.00;1.02;;;;;;;;;;5073993;28;20060;-65
2022/09/02 05:40:46;;;;;;;2.15;0.90;;;;;;;;;;5074169;28;20057;-65
2022/09/02 05:43:13;;;;;;;3.42;0.70;;;;;;;;;;5077372;28;20057;-64
2022/09/02 05:45:39;;;;;;;1.98;0.80;;;;;;;;;;5078814;28;20060;-64
2022/09/02 05:50:57;;;;;;;1.67;0.90;;;;;;;;;;5085860;28;20053;-64
2022/09/02 05:53:29;;;;;;;1.60;1.10;;;;;;;;;;5080963;28;20052;-65
2022/09/02 05:55:56;;;;;;;1.83;1.20;;;;;;;;;;5089303;28;20052;-65
2022/09/02 05:58:22;;;;;;;4.30;1.20;;;;;;;;;;5080008;28;20048;-64
2022/09/02 06:00:49;;;;;;;3.65;1.25;;;;;;;;;;5086595;28;20055;-63
2022/09/02 06:03:18;;;;;;;1.73;0.85;;;;;;;;;;5075606;28;20051;-63
2022/09/02 06:05:57;;;;;;;5.95;1.15;;;;;;;;;;5073706;28;20059;-64
2022/09/02 06:08:31;;;;;;;4.07;1.35;;;;;;;;;;5091489;28;20478;-64
2022/09/02 06:10:59;;;;;;;2.53;0.90;;;;;;;;;;5083551;28;20049;-65
2022/09/02 06:13:27;;;;;;;1.90;1.00;;;;;;;;;;5084601;28;20485;-65
2022/09/02 06:15:54;;;;;;;5.47;1.25;;;;;;;;;;5088123;28;20057;-65
2022/09/02 06:18:20;;;;;;;1.63;1.00;;;;;;;;;;5090640;28;20127;-64
2022/09/02 06:20:48;;;;;;;1.55;0.90;;;;;;;;;;5093728;28;20056;-65
2022/09/02 06:23:15;;;;;;;6.35;1.75;;;;;;;;;;5075604;28;20053;-64
2022/09/02 06:25:43;;;;;;;1.58;0.93;;;;;;;;;;5073365;28;20136;-65
2022/09/02 06:28:10;;;;;;;1.80;1.17;;;;;;;;;;5075033;28;20064;-66
2022/09/02 06:30:38;;;;;;;2.13;1.20;;;;;;;;;;5077170;28;20064;-67
2022/09/02 06:33:05;;;;;;;0.80;0.80;;;;;;;;;;5087220;28;20123;-66
2022/09/02 06:35:36;;;;;;;4.70;1.23;;;;;;;;;;5107550;28;20062;-66
2022/09/02 06:38:03;;;;;;;4.63;1.38;;;;;;;;;;5077144;28;20063;-67
2022/09/02 06:40:29;;;;;;;2.35;0.80;;;;;;;;;;5083778;28;20053;-66
2022/09/02 06:42:55;;;;;;;1.92;0.95;;;;;;;;;;5093450;28;20048;-66
2022/09/02 06:45:25;;;;;;;1.77;1.25;;;;;;;;;;5098703;28;20055;-64
2022/09/02 06:47:52;;;;;;;2.38;0.98;;;;;;;;;;5091467;27;20052;-64
2022/09/02 06:50:19;;;;;;;1.45;0.95;;;;;;;;;;5088597;28;20056;-65
2022/09/02 06:52:45;;;;;;;6.95;1.17;;;;;;;;;;5075801;28;20045;-64
2022/09/02 06:55:12;;;;;;;5.22;1.15;;;;;;;;;;5083439;28;20550;-63
2022/09/02 06:57:39;;;;;;;1.67;0.93;;;;;;;;;;5091828;28;20048;-64
2022/09/02 07:00:06;;;;;;;4.10;1.33;;;;;;;;;;5084316;28;20055;-65
2022/09/02 07:02:33;;;;;;;3.85;1.15;;;;;;;;;;5099868;28;20051;-64
2022/09/02 07:05:08;;;;;;;1.30;1.10;;;;;;;;;;5091613;28;20048;-65
2022/09/02 07:07:35;;;;;;;6.20;1.00;;;;;;;;;;5089702;28;20439;-65
2022/09/02 07:10:06;;;;;;;1.80;1.35;;;;;;;;;;5087349;28;20048;-65
2022/09/02 07:12:34;;;;;;;2.67;0.90;;;;;;;;;;5096200;28;20054;-65
2022/09/02 07:15:00;;;;;;;6.40;1.40;;;;;;;;;;5097544;28;20059;-64
2022/09/02 07:17:27;;;;;;;2.00;1.33;;;;;;;;;;5080860;28;20144;-65
2022/09/02 07:19:56;;;;;;;2.63;0.90;;;;;;;;;;5091067;28;20530;-65
2022/09/02 07:22:22;;;;;;;4.28;1.20;;;;;;;;;;5092143;28;20052;-65
2022/09/02 07:24:48;;;;;;;3.80;1.50;;;;;;;;;;5090370;28;20425;-65
2022/09/02 07:27:15;;;;;;;15.23;2.63;;;;;;;;;;5085236;28;20049;-66
2022/09/02 07:29:43;;;;;;;2.75;1.33;;;;;;;;;;5091481;28;20053;-65
2022/09/02 07:32:09;;;;;;;3.38;1.15;;;;;;;;;;5092664;28;20048;-64
2022/09/02 07:34:35;;;;;;;2.03;1.10;;;;;;;;;;5092374;28;20056;-65
2022/09/02 07:37:03;;;;;;;2.58;1.10;;;;;;;;;;5093242;28;20147;-64
2022/09/02 07:39:35;;;;;;;2.55;1.60;;;;;;;;;;5080671;28;20056;-64
2022/09/02 07:42:02;;;;;;;2.80;1.27;;;;;;;;;;5072047;28;20060;-65
2022/09/02 07:44:28;;;;;;;5.22;1.55;;;;;;;;;;5072334;28;20511;-65
2022/09/02 07:46:55;;;;;;;2.72;1.17;;;;;;;;;;5082839;28;20049;-64
2022/09/02 07:49:21;;;;;;;1.77;1.10;;;;;;;;;;5091204;28;20053;-64
2022/09/02 07:51:50;;;;;;;3.08;1.27;;;;;;;;;;5086369;28;20171;-66
2022/09/02 07:54:20;;;;;;;3.35;1.40;;;;;;;;;;5082862;28;20519;-64
2022/09/02 07:56:47;;;;;;;5.75;1.20;;;;;;;;;;5088081;28;20056;-63
2022/09/02 07:59:13;;;;;;;5.85;1.30;;;;;;;;;;5094192;28;20071;-64
2022/09/02 08:01:42;;;;;;;3.63;1.10;;;;;;;;;;5101780;28;20053;-64
2022/09/02 08:04:14;;;;;;;8.77;1.17;;;;;;;;;;5075015;28;20056;-65
2022/09/02 08:06:40;;;;;;;1.67;1.10;;;;;;;;;;5084102;28;20055;-65
2022/09/02 08:09:11;;;;;;;2.17;1.17;;;;;;;;;;5089655;28;20052;-65
2022/09/02 08:11:39;;;;;;;4.05;0.80;;;;;;;;;;5092503;28;20048;-65
2022/09/02 08:14:07;;;;;;;1.25;0.90;;;;;;;;;;5091792;28;20127;-65
2022/09/02 08:16:34;;;;;;;3.55;1.30;;;;;;;;;;5090819;28;20099;-64
2022/09/02 08:19:00;;;;;;;5.32;1.58;;;;;;;;;;5090997;28;20040;-66
2022/09/02 08:21:26;;;;;;;4.82;1.15;;;;;;;;;;5091754;28;20052;-66
2022/09/02 08:23:53;;;;;;;4.55;1.20;;;;;;;;;;5076927;28;20534;-65
2022/09/02 08:26:20;;;;;;;1.10;1.00;;;;;;;;;;5080444;28;20534;-65
2022/09/02 08:28:46;;;;;;;4.15;1.70;;;;;;;;;;5082335;28;20053;-66
2022/09/02 08:31:12;;;;;;;4.65;1.33;;;;;;;;;;5091292;28;20450;-66
2022/09/02 08:33:39;;;;;;;2.50;1.20;;;;;;;;;;5080816;28;20052;-65
2022/09/02 08:36:07;;;;;;;4.18;1.40;;;;;;;;;;5082949;28;20057;-65
2022/09/02 08:38:34;;;;;;;3.17;1.33;;;;;;;;;;5075937;28;20057;-65
2022/09/02 08:41:00;;;;;;;5.65;1.70;;;;;;;;;;5071833;28;20049;-64
2022/09/02 08:43:38;;;;;;;9.00;1.90;;;;;;;;;;5071782;28;20049;-63
2022/09/02 08:46:07;;;;;;;3.92;1.73;;;;;;;;;;5078724;28;20078;-64
2022/09/02 08:48:33;;;;;;;9.52;1.50;;;;;;;;;;5089177;28;20076;-64
2022/09/02 08:51:04;;;;;;;7.38;1.52;;;;;;;;;;5091981;28;20060;-63
2022/09/02 08:53:51;;;;;;;4.07;2.22;;;;;;;;;;5074898;28;20052;-64
2022/09/02 08:56:17;;;;;;;12.88;2.00;;;;;;;;;;5077503;28;20584;-64
2022/09/02 08:58:47;;;;;;;5.95;1.50;;;;;;;;;;5095491;28;20059;-64
2022/09/02 09:01:24;;;;;;;4.78;1.70;;;;;;;;;;5094649;28;20064;-65
2022/09/02 09:03:56;;;;;;;2.60;1.63;;;;;;;;;;5078557;28;20477;-66
2022/09/02 09:06:30;;;;;;;3.85;1.50;;;;;;;;;;5075018;28;20471;-65
2022/09/02 09:09:06;;;;;;;2.35;1.35;;;;;;;;;;5077151;28;20056;-64
2022/09/02 09:11:42;;;;;;;5.50;1.73;;;;;;;;;;5095020;28;20059;-64
2022/09/02 09:14:09;;;;;;;4.25;1.38;;;;;;;;;;5094890;28;20059;-64
2022/09/02 09:16:56;;;;;;;4.60;2.40;;;;;;;;;;5085396;28;20060;-63
2022/09/02 09:19:32;;;;;;;3.20;1.30;;;;;;;;;;5072820;28;20081;-65
2022/09/02 09:22:02;;;;;;;4.88;1.45;;;;;;;;;;5074289;28;20053;-64
2022/09/02 09:24:35;;;;;;;6.90;1.48;;;;;;;;;;5077881;28;20555;-64
2022/09/02 09:27:03;;;;;;;2.97;1.48;;;;;;;;;;5074198;28;20056;-67
2022/09/02 09:29:33;;;;;;;3.38;1.45;;;;;;;;;;5089824;28;20056;-65
2022/09/02 09:31:59;;;;;;;3.60;2.20;;;;;;;;;;5094690;28;20049;-63
2022/09/02 09:34:47;;;;;;;4.07;1.80;;;;;;;;;;5084787;28;20547;-65
2022/09/02 09:37:26;;;;;;;4.00;1.45;;;;;;;;;;5091637;28;20063;-65
2022/09/02 09:39:56;;;;;;;3.40;1.65;;;;;;;;;;5094522;28;20087;-64
2022/09/02 09:42:30;;;;;;;4.60;1.60;;;;;;;;;;5094533;28;20063;-64
2022/09/02 09:44:57;;;;;;;5.50;1.90;;;;;;;;;;5090634;28;20064;-65
2022/09/02 09:47:24;;;;;;;4.95;1.60;;;;;;;;;;5073893;28;20045;-65
2022/09/02 09:49:52;;;;;;;3.17;1.52;;;;;;;;;;5090279;28;20048;-64
2022/09/02 09:52:25;;;;;;;2.60;1.73;;;;;;;;;;5094773;28;20525;-65
2022/09/02 09:55:10;;;;;;;2.22;1.67;;;;;;;;;;5082445;28;20053;-66
2022/09/02 09:57:39;;;;;;;5.53;1.75;;;;;;;;;;5085607;28;20053;-64
2022/09/02 10:00:30;;;;;;;3.33;1.77;;;;;;;;;;5094028;28;20049;-63
2022/09/02 10:02:59;;;;;;;4.28;1.50;;;;;;;;;;5089781;28;20048;-64
2022/09/02 10:05:25;;;;;;;4.10;1.35;;;;;;;;;;5093575;28;20055;-63
2022/09/02 10:07:53;;;;;;;1.80;1.70;;;;;;;;;;5092905;28;20056;-65
2022/09/02 10:10:23;;;;;;;2.63;1.48;;;;;;;;;;5094365;28;20052;-63
2022/09/02 10:12:51;;;;;;;4.53;2.25;;;;;;;;;;5094378;28;20416;-63
2022/09/02 10:15:22;;;;;;;6.00;1.52;;;;;;;;;;5093977;28;20064;-65
2022/09/02 10:17:57;;;;;;;6.40;1.65;;;;;;;;;;5093521;28;20084;-64
2022/09/02 10:20:23;;;;;;;5.82;1.65;;;;;;;;;;5072231;28;20530;-64
2022/09/02 10:22:52;;;;;;;3.03;1.70;;;;;;;;;;5074522;28;20059;-64
2022/09/02 10:25:41;;;;;;;3.75;1.65;;;;;;;;;;5083194;28;20115;-64
2022/09/02 10:28:08;;;;;;;4.28;1.73;;;;;;;;;;5073800;28;20060;-63
2022/09/02 10:30:48;;;;;;;7.93;1.80;;;;;;;;;;5073426;28;20571;-65
2022/09/02 10:33:36;;;;;;;3.40;1.67;;;;;;;;;;5076196;28;20053;-65
2022/09/02 10:36:07;;;;;;;5.25;1.70;;;;;;;;;;5073904;28;20554;-65
2022/09/02 10:38:36;;;;;;;3.55;1.80;;;;;;;;;;5089022;28;20048;-66
2022/09/02 10:41:05;;;;;;;7.90;1.70;;;;;;;;;;5093518;28;20053;-65
2022/09/02 10:43:58;;;;;;;10.13;2.28;;;;;;;;;;5092201;28;20420;-65
2022/09/02 10:46:25;;;;;;;8.00;1.67;;;;;;;;;;5093605;28;20055;-66
2022/09/02 10:49:12;;;;;;;2.67;1.92;;;;;;;;;;5093562;28;20052;-65
2022/09/02 10:51:56;;;;;;;7.65;2.88;;;;;;;;;;5093231;28;20060;-64
2022/09/02 10:54:28;;;;;;;3.25;2.00;;;;;;;;;;5093366;28;20139;-66
2022/09/02 10:57:00;;;;;;;4.05;1.80;;;;;;;;;;5093438;28;20655;-64
2022/09/02 10:59:40;;;;;;;2.97;1.65;;;;;;;;;;5092550;28;20052;-64
2022/09/02 11:02:12;;;;;;;2.25;1.80;;;;;;;;;;5080723;28;20049;-65
2022/09/02 11:04:40;;;;;;;3.40;1.70;;;;;;;;;;5072716;28;20045;-65
2022/09/02 11:07:09;;;;;;;2.22;1.60;;;;;;;;;;5073814;28;20057;-65
2022/09/02 11:09:56;;;;;;;3.55;1.80;;;;;;;;;;5072705;28;20060;-66
2022/09/02 11:12:34;;;;;;;7.57;1.80;;;;;;;;;;5072808;28;20057;-64
2022/09/02 11:15:08;;;;;;;5.75;1.88;;;;;;;;;;5086583;28;20092;-65
2022/09/02 11:17:38;;;;;;;3.67;2.00;;;;;;;;;;5092930;28;20508;-67
2022/09/02 11:20:08;;;;;;;7.63;1.92;;;;;;;;;;5092361;28;20602;-65
2022/09/02 11:22:52;;;;;;;1.92;1.55;;;;;;;;;;5072895;28;20055;-65
2022/09/02 11:25:28;;;;;;;3.33;1.83;;;;;;;;;;5072643;28;20063;-66
2022/09/02 11:28:00;;;;;;;1.90;1.33;;;;;;;;;;5081965;28;20059;-66
2022/09/02 11:30:59;;;;;;;1.67;1.40;;;;;;;;;;5092257;28;20068;-65
2022/09/02 11:33:33;;;;;;;4.38;2.10;;;;;;;;;;5080166;28;20057;-65
2022/09/02 11:35:59;;;;;;;2.50;1.45;;;;;;;;;;5085926;28;20048;-66
2022/09/02 11:38:39;;;;;;;3.17;1.30;;;;;;;;;;5072467;28;20057;-66
2022/09/02 11:41:18;;;;;;;2.15;1.48;;;;;;;;;;5072057;28;20496;-65
2022/09/02 11:44:28;;;;;;;3.03;1.80;;;;;;;;;;5072317;28;20061;-66
2022/09/02 11:47:03;;;;;;;3.03;1.27;;;;;;;;;;5079784;28;20056;-67
2022/09/02 11:49:42;;;;;;;2.78;1.58;;;;;;;;;;5091676;28;20105;-67
2022/09/02 11:52:23;;;;;;;1.83;1.42;;;;;;;;;;5091978;28;20074;-67
2022/09/02 11:54:58;;;;;;;2.45;1.42;;;;;;;;;;5092352;28;20075;-66
2022/09/02 11:57:29;;;;;;;3.17;1.50;;;;;;;;;;5092694;28;20052;-66
2022/09/02 11:59:55;;;;;;;2.50;1.40;;;;;;;;;;5092784;28;20051;-66
2022/09/02 12:02:33;;;;;;;2.47;1.35;;;;;;;;;;5091902;28;20098;-67
2022/09/02 12:05:18;;;;;;;4.15;1.42;;;;;;;;;;5092256;28;20052;-65
2022/09/02 12:07:45;;;;;;;;;;;;;;;;;;5073341;28;20053;-64
2022/09/02 12:10:33;;;;;;;3.35;1.45;;;;;;;;;;5071385;28;46576;-66
2022/09/02 12:13:01;;;;;;;1.70;1.60;;;;;;;;;;5090450;28;20538;-65
2022/09/02 12:15:28;;;;;;;1.95;1.38;;;;;;;;;;5073254;28;20057;-66
2022/09/02 12:17:55;;;;;;;1.38;1.27;;;;;;;;;;5073003;28;21147;-66
2022/09/02 12:20:41;;;;;;;1.50;1.40;;;;;;;;;;5090216;28;20050;-65
2022/09/02 12:23:08;;;;;;;1.88;1.55;;;;;;;;;;5092154;28;20084;-65
2022/09/02 12:25:37;;;;;;;3.05;1.33;;;;;;;;;;5090870;28;20086;-66
2022/09/02 12:28:16;;;;;;;2.97;1.33;;;;;;;;;;5078597;28;20055;-66
2022/09/02 12:31:01;;;;;;;1.70;1.50;;;;;;;;;;5082467;28;20053;-66
2022/09/02 12:33:29;;;;;;;2.75;1.40;;;;;;;;;;5071084;28;20053;-65
2022/09/02 12:35:57;;;;;;;4.75;1.60;;;;;;;;;;5080000;28;20059;-65
2022/09/02 12:38:28;;;;;;;5.88;1.55;;;;;;;;;;5090843;28;20075;-65
2022/09/02 12:40:56;;;;;;;3.28;1.55;;;;;;;;;;5091718;28;20057;-66
2022/09/02 12:43:35;;;;;;;3.83;1.50;;;;;;;;;;5091652;28;20561;-65
2022/09/02 12:46:20;;;;;;;3.30;1.90;;;;;;;;;;5091501;28;20873;-65
2022/09/02 12:48:54;;;;;;;5.35;2.03;;;;;;;;;;5091385;28;20439;-65
2022/09/02 12:51:39;;;;;;;1.60;1.50;;;;;;;;;;5092360;28;20058;-65
2022/09/02 12:54:05;;;;;;;3.88;1.50;;;;;;;;;;5091752;28;20049;-65
2022/09/02 12:56:31;;;;;;;4.60;2.42;;;;;;;;;;5091956;28;20052;-64
2022/09/02 12:58:58;;;;;;;3.33;1.50;;;;;;;;;;5091211;28;20063;-64
2022/09/02 13:01:53;;;;;;;2.60;1.63;;;;;;;;;;5091302;28;20060;-65
2022/09/02 13:04:22;;;;;;;4.68;1.50;;;;;;;;;;5091250;28;20053;-65
2022/09/02 13:07:07;;;;;;;1.90;1.73;;;;;;;;;;5090806;28;20063;-65
2022/09/02 13:09:40;;;;;;;2.05;1.48;;;;;;;;;;5085413;28;20060;-65
2022/09/02 13:12:06;;;;;;;8.07;1.73;;;;;;;;;;5075265;28;20053;-64
2022/09/02 13:14:51;;;;;;;7.53;1.90;;;;;;;;;;5080523;28;20057;-64
2022/09/02 13:17:21;;;;;;;2.97;1.63;;;;;;;;;;5079273;28;20049;-64
2022/09/02 13:20:02;;;;;;;2.45;1.98;;;;;;;;;;5089676;28;20056;-64
2022/09/02 13:22:48;;;;;;;1.80;1.70;;;;;;;;;;5090516;28;20448;-64
2022/09/02 13:25:47;;;;;;;2.65;1.90;;;;;;;;;;5073401;28;20063;-63
2022/09/02 13:28:13;;;;;;;1.50;1.40;;;;;;;;;;5057360;28;20052;-64
2022/09/02 13:30:48;;;;;;;4.15;1.80;;;;;;;;;;5086905;28;20059;-64
2022/09/02 13:33:14;;;;;;;1.58;1.48;;;;;;;;;;5077468;28;20057;-64
2022/09/02 13:35:41;;;;;;;5.28;2.17;;;;;;;;;;5089659;28;20467;-65
2022/09/02 13:38:11;;;;;;;2.47;1.38;;;;;;;;;;5080512;28;20055;-64
2022/09/02 13:40:39;;;;;;;4.57;1.85;;;;;;;;;;5090765;28;20057;-63
2022/09/02 13:43:11;;;;;;;2.85;1.50;;;;;;;;;;5093023;28;20501;-64
2022/09/02 13:45:38;;;;;;;1.77;1.42;;;;;;;;;;5088932;28;20575;-64
2022/09/02 13:48:15;;;;;;;3.20;1.40;;;;;;;;;;5078538;28;20056;-63
2022/09/02 13:50:44;;;;;;;3.67;1.60;;;;;;;;;;5077423;28;20048;-64
2022/09/02 13:53:31;;;;;;;2.50;1.50;;;;;;;;;;5093256;28;20059;-64
2022/09/02 13:56:23;;;;;;;2.80;1.45;;;;;;;;;;5086899;28;20057;-64
2022/09/02 13:58:51;;;;;;;3.05;1.35;;;;;;;;;;5094318;28;20420;-65
2022/09/02 14:01:29;;;;;;;4.75;1.60;;;;;;;;;;5089844;28;20052;-66
2022/09/02 14:03:57;;;;;;;4.18;1.50;;;;;;;;;;5086078;28;20049;-64
2022/09/02 14:06:26;;;;;;;4.38;1.60;;;;;;;;;;5082910;28;20057;-65
2022/09/02 14:08:55;;;;;;;1.50;1.40;;;;;;;;;;5081570;28;20056;-64
2022/09/02 14:11:21;;;;;;;2.85;1.52;;;;;;;;;;5090974;28;20041;-64
2022/09/02 14:13:49;;;;;;;1.73;1.35;;;;;;;;;;5073159;28;20060;-64
2022/09/02 14:16:32;;;;;;;1.50;1.40;;;;;;;;;;5078729;28;20057;-65
2022/09/02 14:19:02;;;;;;;3.05;1.52;;;;;;;;;;5093361;28;20055;-65
2022/09/02 14:21:28;;;;;;;3.35;1.73;;;;;;;;;;5093917;28;20428;-65
2022/09/02 14:23:56;;;;;;;3.33;1.65;;;;;;;;;;5092433;28;20079;-65
2022/09/02 14:26:36;;;;;;;1.70;1.60;;;;;;;;;;5092924;28;20055;-65
2022/09/02 14:29:06;;;;;;;1.58;1.40;;;;;;;;;;5092395;28;20147;-65
2022/09/02 14:31:33;;;;;;;4.72;1.60;;;;;;;;;;5088013;28;20057;-66
2022/09/02 14:34:00;;;;;;;1.98;1.30;;;;;;;;;;5089152;28;20126;-64
2022/09/02 14:36:31;;;;;;;3.65;1.48;;;;;;;;;;5085770;28;20053;-65
2022/09/02 14:39:09;;;;;;;5.10;1.67;;;;;;;;;;5089452;28;20049;-66
2022/09/02 14:41:42;;;;;;;2.38;1.55;;;;;;;;;;5092828;28;20361;-65
2022/09/02 14:44:10;;;;;;;3.15;1.75;;;;;;;;;;5092085;28;20060;-66
2022/09/02 14:46:44;;;;;;;10.75;2.10;;;;;;;;;;5092470;28;20052;-66
2022/09/02 14:49:30;;;;;;;6.30;2.03;;;;;;;;;;5084080;28;20060;-66
2022/09/02 14:51:57;;;;;;;4.60;1.58;;;;;;;;;;5084806;28;20059;-68
2022/09/02 14:54:39;;;;;;;2.88;1.83;;;;;;;;;;5088032;28;20052;-66
2022/09/02 14:57:30;;;;;;;1.35;1.25;;;;;;;;;;5080693;28;20052;-66
2022/09/02 14:59:59;;;;;;;2.90;1.38;;;;;;;;;;5085692;28;20053;-69
2022/09/02 15:02:25;;;;;;;4.20;1.30;;;;;;;;;;5081612;28;22144;-66
2022/09/02 15:04:57;;;;;;;6.93;1.73;;;;;;;;;;5088581;28;20058;-66